Time;durP1;ratioP1;P1;durP2;ratioP2;P2;SDS_P1;SDS_P2;PMS_P1;PMS_P2;Temp;Humidity;BMP_temperature;BMP_pressure;BME280_temperature;BME280_humidity;BME280_pressure;Samples;Min_cycle;Max_cycle;Signal;HPM_P1;HPM_P2
2021/12/04 00:02:05;;;;;;;6.97;5.13;;;2.00;99.90;;;;;;5069192;28;20203;-75
2021/12/04 00:04:35;;;;;;;5.13;4.73;;;2.00;99.90;;;;;;5069233;28;20219;-75
2021/12/04 00:07:02;;;;;;;6.10;5.30;;;2.00;99.90;;;;;;5069321;28;20216;-75
2021/12/04 00:09:30;;;;;;;5.20;4.70;;;2.00;99.90;;;;;;5069541;28;20294;-75
2021/12/04 00:11:59;;;;;;;4.90;4.50;;;2.00;99.90;;;;;;5069037;28;20250;-75
2021/12/04 00:14:27;;;;;;;4.73;4.33;;;2.00;99.90;;;;;;5065530;28;20205;-75
2021/12/04 00:16:54;;;;;;;5.53;5.00;;;2.00;99.90;;;;;;5062011;28;20257;-75
2021/12/04 00:19:21;;;;;;;5.50;5.00;;;2.00;99.90;;;;;;5064241;28;20211;-75
2021/12/04 00:21:47;;;;;;;5.13;4.63;;;2.00;99.90;;;;;;5069231;28;20819;-76
2021/12/04 00:24:14;;;;;;;5.83;4.80;;;2.00;99.90;;;;;;5071571;28;20199;-75
2021/12/04 00:26:43;;;;;;;7.97;5.30;;;2.00;99.90;;;;;;5054637;28;20346;-74
2021/12/04 00:29:10;;;;;;;5.00;4.60;;;2.00;99.90;;;;;;5048376;28;20293;-75
2021/12/04 00:31:37;;;;;;;5.53;5.03;;;2.00;99.90;;;;;;5048922;28;20239;-75
2021/12/04 00:34:04;;;;;;;6.13;5.00;;;2.00;99.90;;;;;;5056517;28;20228;-76
2021/12/04 00:36:35;;;;;;;5.40;4.70;;;2.10;99.90;;;;;;5048712;28;20225;-75
2021/12/04 00:50:17;;;;;;;5.67;5.17;;;2.00;99.90;;;;;;5048010;28;20249;-74
2021/12/04 00:52:43;;;;;;;6.53;4.93;;;2.10;99.90;;;;;;5048754;28;20278;-74
2021/12/04 00:55:10;;;;;;;5.20;4.80;;;2.10;99.90;;;;;;5048287;28;20212;-75
2021/12/04 00:57:39;;;;;;;5.43;4.93;;;2.10;99.90;;;;;;5066073;28;20261;-75
2021/12/04 01:00:07;;;;;;;6.50;5.17;;;2.10;99.90;;;;;;5068107;28;20713;-75
2021/12/04 01:02:34;;;;;;;5.47;4.63;;;2.10;99.90;;;;;;5053522;28;20199;-75
2021/12/04 01:05:01;;;;;;;5.60;5.07;;;2.10;99.90;;;;;;5068430;28;20219;-75
2021/12/04 01:07:28;;;;;;;5.70;5.10;;;2.10;99.90;;;;;;5054792;28;20223;-74
2021/12/04 01:09:55;;;;;;;4.83;4.50;;;2.10;99.90;;;;;;5048631;28;20204;-75
2021/12/04 01:12:22;;;;;;;5.50;5.00;;;2.10;99.90;;;;;;5048112;28;20593;-75
2021/12/04 01:14:50;;;;;;;5.13;4.73;;;2.10;99.90;;;;;;5048318;28;20211;-75
2021/12/04 01:17:16;;;;;;;6.20;4.73;;;2.10;99.90;;;;;;5048039;28;20207;-75
2021/12/04 01:19:43;;;;;;;5.77;5.00;;;2.10;99.90;;;;;;5048647;28;20249;-75
2021/12/04 01:22:10;;;;;;;6.53;5.77;;;2.10;99.90;;;;;;5065660;28;20207;-75
2021/12/04 01:24:37;;;;;;;5.83;4.40;;;2.10;99.90;;;;;;5066853;28;20199;-75
2021/12/04 01:27:04;;;;;;;6.63;5.13;;;2.10;99.90;;;;;;5052269;28;20261;-75
2021/12/04 01:29:30;;;;;;;5.50;5.00;;;2.10;99.90;;;;;;5059904;28;20235;-76
2021/12/04 01:31:58;;;;;;;6.23;4.90;;;2.10;99.90;;;;;;5051279;28;20281;-76
2021/12/04 01:34:25;;;;;;;6.10;4.90;;;2.10;99.90;;;;;;5062546;28;20659;-75
2021/12/04 01:36:52;;;;;;;5.43;4.93;;;2.10;99.90;;;;;;5048413;28;20215;-75
2021/12/04 01:39:19;;;;;;;6.13;5.07;;;2.10;99.90;;;;;;5051242;28;20211;-75
2021/12/04 01:41:45;;;;;;;5.60;5.10;;;2.20;99.90;;;;;;5062097;28;20271;-75
2021/12/04 01:44:14;;;;;;;6.03;5.50;;;2.20;99.90;;;;;;5065490;28;20571;-75
2021/12/04 01:46:41;;;;;;;5.57;4.97;;;2.10;99.90;;;;;;5061005;28;20214;-76
2021/12/04 01:49:09;;;;;;;4.90;4.60;;;2.20;99.90;;;;;;5060105;28;20200;-75
2021/12/04 01:51:37;;;;;;;6.00;5.43;;;2.20;99.90;;;;;;5047913;28;20256;-76
2021/12/04 01:54:04;;;;;;;7.57;5.30;;;2.10;99.90;;;;;;5047339;28;20654;-76
2021/12/04 01:56:33;;;;;;;5.57;5.03;;;2.20;99.90;;;;;;5047655;28;20607;-76
2021/12/04 01:59:00;;;;;;;6.17;5.63;;;2.20;99.90;;;;;;5047635;28;20270;-76
2021/12/04 02:01:27;;;;;;;5.30;4.80;;;2.20;99.90;;;;;;5047411;28;20699;-76
2021/12/04 02:03:53;;;;;;;5.40;4.97;;;2.20;99.90;;;;;;5047674;28;20205;-77
2021/12/04 02:06:21;;;;;;;5.40;5.00;;;2.20;99.90;;;;;;5047930;28;20208;-77
2021/12/04 02:08:48;;;;;;;5.67;5.17;;;2.20;99.90;;;;;;5049329;28;20200;-77
2021/12/04 02:11:15;;;;;;;6.17;5.57;;;2.20;99.90;;;;;;5055872;28;20218;-77
2021/12/04 02:13:41;;;;;;;5.27;4.77;;;2.20;99.90;;;;;;5049122;28;20437;-78
2021/12/04 02:16:15;;;;;;;6.03;5.33;;;2.20;99.90;;;;;;5050509;28;20239;-80
2021/12/04 02:18:42;;;;;;;6.77;5.33;;;2.20;99.90;;;;;;5054591;28;20215;-77
2021/12/04 02:21:19;;;;;;;6.33;5.57;;;2.20;99.90;;;;;;5048086;28;20667;-77
2021/12/04 02:23:46;;;;;;;5.77;5.27;;;2.20;99.90;;;;;;5065882;28;20207;-78
2021/12/04 02:26:14;;;;;;;6.57;5.90;;;2.20;99.90;;;;;;5058139;28;20254;-77
2021/12/04 02:28:43;;;;;;;6.93;5.83;;;2.20;99.90;;;;;;5054818;28;20267;-77
2021/12/04 02:31:19;;;;;;;5.60;5.17;;;2.20;99.90;;;;;;5055591;28;20305;-77
2021/12/04 02:33:46;;;;;;;5.53;5.03;;;2.20;99.90;;;;;;5059235;28;20207;-77
2021/12/04 02:36:15;;;;;;;6.00;5.40;;;2.20;99.90;;;;;;5058464;28;20204;-77
2021/12/04 02:38:49;;;;;;;7.07;5.60;;;2.20;99.90;;;;;;5062322;28;20215;-77
2021/12/04 02:41:15;;;;;;;7.80;6.50;;;2.20;99.90;;;;;;5065120;28;20278;-77
2021/12/04 02:43:42;;;;;;;8.00;5.73;;;2.20;99.90;;;;;;5056203;28;20208;-77
2021/12/04 02:46:16;;;;;;;5.60;5.10;;;2.20;99.90;;;;;;5057545;28;20742;-77
2021/12/04 02:48:44;;;;;;;6.67;6.07;;;2.20;99.90;;;;;;5051995;28;20621;-75
2021/12/04 02:51:16;;;;;;;5.70;5.20;;;2.20;99.90;;;;;;5056847;28;20223;-74
2021/12/04 02:53:44;;;;;;;6.10;5.60;;;2.20;99.90;;;;;;5061997;28;20662;-75
2021/12/04 02:56:26;;;;;;;5.97;5.47;;;2.20;99.90;;;;;;5061774;28;20245;-75
2021/12/04 02:59:00;;;;;;;5.83;5.33;;;2.20;99.90;;;;;;5069974;28;20575;-75
2021/12/04 03:01:26;;;;;;;6.13;5.57;;;2.20;99.90;;;;;;5066894;28;20664;-75
2021/12/04 03:03:53;;;;;;;6.40;5.80;;;2.20;99.90;;;;;;5069472;28;20196;-75
2021/12/04 03:06:20;;;;;;;6.30;5.60;;;2.20;99.90;;;;;;5056923;28;20228;-75
2021/12/04 03:08:48;;;;;;;7.57;5.40;;;2.20;99.90;;;;;;5051082;28;21125;-75
2021/12/04 03:11:17;;;;;;;5.60;5.03;;;2.20;99.90;;;;;;5051048;28;20253;-75
2021/12/04 03:13:44;;;;;;;6.37;5.43;;;2.20;99.90;;;;;;5060743;28;20196;-75
2021/12/04 03:16:16;;;;;;;5.77;5.13;;;2.20;99.90;;;;;;5059451;28;20204;-77
2021/12/04 03:18:43;;;;;;;6.07;5.53;;;2.20;99.90;;;;;;5057266;28;20197;-76
2021/12/04 03:21:16;;;;;;;6.40;5.80;;;2.20;99.90;;;;;;5069981;28;20204;-76
2021/12/04 03:23:52;;;;;;;6.00;5.50;;;2.30;99.90;;;;;;5061750;28;20204;-76
2021/12/04 03:26:20;;;;;;;5.63;5.13;;;2.20;99.90;;;;;;5066187;28;20722;-76
2021/12/04 03:28:48;;;;;;;5.83;5.23;;;2.20;99.90;;;;;;5057038;28;20232;-76
2021/12/04 03:31:22;;;;;;;5.70;5.27;;;2.20;99.90;;;;;;5067035;28;20891;-76
2021/12/04 03:42:02;;;;;;;6.30;5.50;;;2.20;99.90;;;;;;5065528;28;20230;-76
2021/12/04 03:44:30;;;;;;;6.00;5.53;;;2.20;99.90;;;;;;5064655;28;20199;-75
2021/12/04 03:46:57;;;;;;;5.93;5.43;;;2.30;99.90;;;;;;5059983;28;20203;-76
2021/12/04 03:49:24;;;;;;;5.87;5.27;;;2.30;99.90;;;;;;5057081;28;20662;-75
2021/12/04 03:51:51;;;;;;;6.27;5.77;;;2.20;99.90;;;;;;5057353;28;20227;-76
2021/12/04 03:54:17;;;;;;;6.27;5.47;;;2.20;99.90;;;;;;5069468;28;20208;-77
2021/12/04 03:56:44;;;;;;;6.43;5.60;;;2.30;99.90;;;;;;5065361;28;20195;-76
2021/12/04 03:59:12;;;;;;;5.50;5.00;;;2.30;99.90;;;;;;5059138;28;20191;-75
2021/12/04 04:01:39;;;;;;;7.97;6.07;;;2.30;99.90;;;;;;5052445;28;20204;-75
2021/12/04 04:04:05;;;;;;;5.50;5.00;;;2.30;99.90;;;;;;5066908;28;20203;-75
2021/12/04 04:06:33;;;;;;;5.53;5.03;;;2.30;99.90;;;;;;5050280;28;20224;-76
2021/12/04 04:09:00;;;;;;;6.27;5.20;;;2.40;99.90;;;;;;5060019;28;20265;-75
2021/12/04 04:11:27;;;;;;;5.60;5.03;;;2.40;99.90;;;;;;5052707;28;20212;-76
2021/12/04 04:13:54;;;;;;;6.27;5.77;;;2.30;99.90;;;;;;5060402;28;20204;-76
2021/12/04 04:16:24;;;;;;;5.87;5.27;;;2.40;99.90;;;;;;5053784;28;20253;-76
2021/12/04 04:18:50;;;;;;;6.27;5.77;;;2.40;99.90;;;;;;5061167;28;20651;-77
2021/12/04 04:21:17;;;;;;;5.50;5.00;;;2.40;99.90;;;;;;5054856;28;20208;-76
2021/12/04 04:23:44;;;;;;;5.60;5.10;;;2.40;99.90;;;;;;5063324;28;20215;-76
2021/12/04 04:26:10;;;;;;;5.77;5.00;;;2.40;99.90;;;;;;5063334;28;20617;-76
2021/12/04 04:28:37;;;;;;;6.30;5.80;;;2.40;99.90;;;;;;5063465;28;20234;-76
2021/12/04 04:31:10;;;;;;;5.80;5.23;;;2.40;99.90;;;;;;5060689;28;20223;-76
2021/12/04 04:33:40;;;;;;;5.50;5.00;;;2.40;99.90;;;;;;5049826;28;20230;-76
2021/12/04 04:36:21;;;;;;;5.97;5.37;;;2.40;99.90;;;;;;5064716;28;20683;-76
2021/12/04 04:38:57;;;;;;;5.90;5.30;;;2.40;99.90;;;;;;5059633;28;20203;-76
2021/12/04 04:58:09;;;;;;;6.50;5.90;;;2.40;99.90;;;;;;5053032;28;20709;-75
2021/12/04 05:11:40;;;;;;;6.23;5.63;;;2.40;99.90;;;;;;5064369;28;20246;-76
2021/12/04 05:14:07;;;;;;;10.07;6.37;;;2.30;99.90;;;;;;5059712;28;20203;-75
2021/12/04 05:16:44;;;;;;;6.27;5.67;;;2.30;99.90;;;;;;5066031;28;20200;-75
2021/12/04 05:19:26;;;;;;;6.93;6.33;;;2.30;99.90;;;;;;5050961;28;20567;-75
2021/12/04 05:21:55;;;;;;;7.03;5.90;;;2.30;99.90;;;;;;5049818;28;20269;-75
2021/12/04 05:24:22;;;;;;;7.60;6.60;;;2.30;99.90;;;;;;5053033;28;20549;-75
2021/12/04 05:26:48;;;;;;;8.00;6.40;;;2.30;99.90;;;;;;5052875;28;20200;-76
2021/12/04 05:29:15;;;;;;;7.47;6.87;;;2.30;99.90;;;;;;5057707;28;20239;-75
2021/12/04 05:31:42;;;;;;;7.70;6.90;;;2.30;99.90;;;;;;5061315;28;20219;-75
2021/12/04 05:34:09;;;;;;;8.10;7.37;;;2.30;99.90;;;;;;5066068;28;20254;-74
2021/12/04 05:36:35;;;;;;;8.47;7.67;;;2.30;99.90;;;;;;5066232;28;20199;-76
2021/12/04 05:39:03;;;;;;;8.40;7.60;;;2.30;99.90;;;;;;5057569;28;20200;-75
2021/12/04 05:41:30;;;;;;;9.03;8.13;;;2.30;99.90;;;;;;5064372;28;20195;-75
2021/12/04 05:43:59;;;;;;;8.77;7.97;;;2.30;99.90;;;;;;5062758;28;20621;-75
2021/12/04 05:46:28;;;;;;;9.13;8.23;;;2.30;99.90;;;;;;5049842;28;20204;-76
2021/12/04 05:48:57;;;;;;;9.20;8.30;;;2.30;99.90;;;;;;5049804;28;20203;-75
2021/12/04 05:51:45;;;;;;;10.00;8.43;;;2.30;99.90;;;;;;5054509;28;20589;-75
2021/12/04 05:54:30;;;;;;;9.23;8.40;;;2.30;99.90;;;;;;5061485;28;20613;-75
2021/12/04 05:56:57;;;;;;;9.33;8.43;;;2.30;99.90;;;;;;5055153;28;20208;-75
2021/12/04 05:59:24;;;;;;;9.83;8.83;;;2.20;99.90;;;;;;5062804;28;20254;-75
2021/12/04 06:01:51;;;;;;;9.50;8.60;;;2.30;99.90;;;;;;5055899;28;20260;-75
2021/12/04 06:04:17;;;;;;;10.73;9.40;;;2.20;99.90;;;;;;5055488;28;20291;-76
2021/12/04 06:06:45;;;;;;;10.10;9.07;;;2.20;99.90;;;;;;5059655;28;20224;-76
2021/12/04 06:09:13;;;;;;;10.17;9.23;;;2.20;99.90;;;;;;5050203;28;20318;-76
2021/12/04 06:11:39;;;;;;;10.77;9.67;;;2.20;99.90;;;;;;5053437;28;20512;-76
2021/12/04 06:14:06;;;;;;;10.70;9.33;;;2.20;99.90;;;;;;5054895;28;20232;-76
2021/12/04 06:16:33;;;;;;;11.77;10.47;;;2.20;99.90;;;;;;5068653;28;20617;-75
2021/12/04 06:19:09;;;;;;;11.27;10.13;;;2.30;99.90;;;;;;5062758;28;20207;-75
2021/12/04 06:24:21;;;;;;;14.53;10.37;;;2.20;99.90;;;;;;5052202;28;20210;-75
2021/12/04 06:26:47;;;;;;;11.40;10.13;;;2.20;99.90;;;;;;5065526;28;20204;-76
2021/12/04 06:29:14;;;;;;;11.43;10.33;;;2.20;99.90;;;;;;5066543;28;20228;-76
2021/12/04 06:31:41;;;;;;;11.20;9.87;;;2.20;99.90;;;;;;5054652;28;20224;-82
2021/12/04 06:34:10;;;;;;;12.80;10.67;;;2.30;99.90;;;;;;5056004;28;20227;-83
2021/12/04 06:36:37;;;;;;;10.50;9.40;;;2.30;99.90;;;;;;5065098;28;20662;-84
2021/12/04 06:39:05;;;;;;;10.80;9.33;;;2.20;99.90;;;;;;5051744;28;20216;-80
2021/12/04 06:41:33;;;;;;;10.50;8.97;;;2.20;99.90;;;;;;5051321;28;20208;-81
2021/12/04 06:44:00;;;;;;;9.83;8.83;;;2.10;99.90;;;;;;5051963;28;20239;-81
2021/12/04 06:46:27;;;;;;;8.97;8.13;;;2.10;99.90;;;;;;5053331;28;20207;-82
2021/12/04 06:49:03;;;;;;;10.57;8.87;;;2.20;99.90;;;;;;5061803;28;20232;-80
2021/12/04 06:51:32;;;;;;;9.27;8.33;;;2.20;99.90;;;;;;5060943;28;20283;-80
2021/12/04 06:54:02;;;;;;;10.87;9.13;;;2.20;99.90;;;;;;5067825;28;20227;-80
2021/12/04 06:56:33;;;;;;;9.13;7.87;;;2.20;99.90;;;;;;5062109;28;20197;-81
2021/12/04 06:59:06;;;;;;;7.97;7.20;;;2.20;99.90;;;;;;5051325;28;20192;-81
2021/12/04 07:01:33;;;;;;;9.43;8.13;;;2.20;99.90;;;;;;5066138;28;20203;-82
2021/12/04 07:04:00;;;;;;;8.47;7.57;;;2.20;99.90;;;;;;5061782;28;20212;-81
2021/12/04 07:06:27;;;;;;;8.70;7.80;;;2.20;99.90;;;;;;5061846;28;20231;-81
2021/12/04 07:08:56;;;;;;;10.00;7.90;;;2.30;99.90;;;;;;5063792;28;20199;-80
2021/12/04 07:11:22;;;;;;;8.90;7.90;;;2.30;99.90;;;;;;5050947;28;20218;-81
2021/12/04 07:13:49;;;;;;;10.23;7.53;;;2.30;99.90;;;;;;5054818;28;20261;-81
2021/12/04 07:16:22;;;;;;;10.07;8.23;;;2.40;99.90;;;;;;5056209;28;20659;-80
2021/12/04 07:18:49;;;;;;;8.50;7.70;;;2.40;99.90;;;;;;5052010;28;20407;-80
2021/12/04 07:21:25;;;;;;;8.43;7.63;;;2.40;99.90;;;;;;5050828;28;20207;-81
2021/12/04 07:23:52;;;;;;;8.10;7.30;;;2.40;99.90;;;;;;5052350;28;20212;-81
2021/12/04 07:26:27;;;;;;;9.37;7.90;;;2.40;99.90;;;;;;5051115;28;20210;-81
2021/12/04 07:28:55;;;;;;;7.33;6.70;;;2.40;99.90;;;;;;5062526;28;20263;-81
2021/12/04 07:31:30;;;;;;;8.80;7.20;;;2.40;99.90;;;;;;5063004;28;20635;-81
2021/12/04 07:33:57;;;;;;;7.77;6.63;;;2.40;99.90;;;;;;5054130;28;20266;-81
2021/12/04 07:36:24;;;;;;;7.57;6.77;;;2.50;99.90;;;;;;5051711;28;20220;-79
2021/12/04 07:38:51;;;;;;;10.23;8.43;;;2.50;99.90;;;;;;5067342;28;20226;-79
2021/12/04 07:41:24;;;;;;;9.13;8.23;;;2.50;99.90;;;;;;5067797;28;20212;-80
2021/12/04 07:43:51;;;;;;;8.40;7.33;;;2.60;99.90;;;;;;5069994;28;20211;-82
2021/12/04 07:46:21;;;;;;;10.03;6.60;;;2.60;99.90;;;;;;5054646;28;20612;-75
2021/12/04 07:48:49;;;;;;;6.57;5.87;;;2.60;99.90;;;;;;5064706;28;20219;-75
2021/12/04 07:51:31;;;;;;;7.13;5.83;;;2.60;99.90;;;;;;5065333;28;20206;-75
2021/12/04 07:53:57;;;;;;;6.83;6.23;;;2.60;99.90;;;;;;5057914;28;20649;-75
2021/12/04 07:56:24;;;;;;;6.63;5.80;;;2.50;99.90;;;;;;5058916;28;20565;-75
2021/12/04 07:58:51;;;;;;;6.50;5.90;;;2.60;99.90;;;;;;5048605;28;20212;-75
2021/12/04 08:01:27;;;;;;;6.30;5.73;;;2.50;99.90;;;;;;5064113;28;20571;-74
2021/12/04 08:03:55;;;;;;;6.07;5.47;;;2.50;99.90;;;;;;5065136;28;20294;-75
2021/12/04 08:06:28;;;;;;;7.53;5.93;;;2.50;99.90;;;;;;5048482;28;20733;-75
2021/12/04 08:08:58;;;;;;;6.50;5.60;;;2.50;99.90;;;;;;5049114;28;20216;-75
2021/12/04 08:11:34;;;;;;;6.40;5.80;;;2.50;99.90;;;;;;5054186;28;20191;-74
2021/12/04 08:14:01;;;;;;;6.10;5.50;;;2.40;99.90;;;;;;5056781;28;20580;-74
2021/12/04 08:16:28;;;;;;;6.20;5.67;;;2.50;99.90;;;;;;5067023;28;20204;-73
2021/12/04 08:18:56;;;;;;;6.23;5.53;;;2.40;99.90;;;;;;5065355;28;20257;-73
2021/12/04 08:21:26;;;;;;;6.30;5.70;;;2.50;99.90;;;;;;5067899;28;20200;-74
2021/12/04 08:23:53;;;;;;;7.37;5.80;;;2.50;99.90;;;;;;5056302;28;20912;-74
2021/12/04 08:26:23;;;;;;;6.60;6.00;;;2.50;99.90;;;;;;5048034;28;20216;-74
2021/12/04 08:28:51;;;;;;;6.70;6.00;;;2.50;99.90;;;;;;5060148;28;20284;-75
2021/12/04 08:31:22;;;;;;;7.13;5.80;;;2.50;99.90;;;;;;5055548;28;20243;-74
2021/12/04 08:33:49;;;;;;;6.17;5.60;;;2.50;99.90;;;;;;5061772;28;20226;-74
2021/12/04 08:36:35;;;;;;;6.20;5.60;;;2.50;99.90;;;;;;5059566;28;20206;-74
2021/12/04 08:39:04;;;;;;;6.50;5.80;;;2.60;99.90;;;;;;5057438;28;20222;-75
2021/12/04 08:41:30;;;;;;;6.30;5.67;;;2.60;99.90;;;;;;5066829;28;20203;-75
2021/12/04 08:43:57;;;;;;;6.43;5.10;;;2.60;99.90;;;;;;5061767;28;20253;-75
2021/12/04 08:46:37;;;;;;;6.93;5.53;;;2.60;99.90;;;;;;5059782;28;20204;-73
2021/12/04 08:49:05;;;;;;;7.17;5.50;;;2.60;99.90;;;;;;5065658;28;20227;-74
2021/12/04 08:51:33;;;;;;;6.63;5.93;;;2.60;99.90;;;;;;5051987;28;20575;-74
2021/12/04 08:54:02;;;;;;;6.20;5.57;;;2.60;99.90;;;;;;5049502;28;20318;-74
2021/12/04 08:56:28;;;;;;;6.30;5.70;;;2.60;99.90;;;;;;5056750;28;20676;-74
2021/12/04 08:58:55;;;;;;;6.50;5.80;;;2.60;99.90;;;;;;5067992;28;20211;-74
2021/12/04 09:01:32;;;;;;;6.50;5.63;;;2.60;99.90;;;;;;5055174;28;20617;-75
2021/12/04 09:04:04;;;;;;;5.90;5.40;;;2.60;99.90;;;;;;5050312;28;20194;-75
2021/12/04 09:06:31;;;;;;;6.23;5.63;;;2.60;99.90;;;;;;5049633;28;20239;-75
2021/12/04 09:08:58;;;;;;;7.70;5.97;;;2.70;99.90;;;;;;5048231;28;20214;-76
2021/12/04 09:11:32;;;;;;;6.83;6.13;;;2.60;99.90;;;;;;5047709;28;20521;-75
2021/12/04 09:13:59;;;;;;;6.67;5.97;;;2.70;99.90;;;;;;5047727;28;20744;-75
2021/12/04 09:16:31;;;;;;;5.97;5.47;;;2.70;99.90;;;;;;5063772;28;20204;-75
2021/12/04 09:18:58;;;;;;;7.43;6.37;;;2.60;99.90;;;;;;5056203;28;20256;-74
2021/12/04 09:21:32;;;;;;;7.93;5.90;;;2.60;99.90;;;;;;5049351;28;20625;-74
2021/12/04 09:24:07;;;;;;;6.80;6.17;;;2.60;99.90;;;;;;5066443;28;20246;-74
2021/12/04 09:26:45;;;;;;;6.70;6.13;;;2.70;99.90;;;;;;5053265;28;20230;-75
2021/12/04 09:29:26;;;;;;;6.57;5.97;;;2.70;99.90;;;;;;5070776;28;20223;-73
2021/12/04 09:32:14;;;;;;;7.20;6.20;;;2.70;99.90;;;;;;5066494;28;20197;-71
2021/12/04 09:35:01;;;;;;;7.17;6.30;;;2.80;99.90;;;;;;5087872;28;20321;-75
2021/12/04 09:59:08;;;;;;;7.00;6.03;;;2.80;99.90;;;;;;5061776;28;20225;-74
2021/12/04 10:02:40;;;;;;;8.27;7.07;;;3.00;99.90;;;;;;5006658;28;20206;-73
2021/12/04 10:05:52;;;;;;;10.23;7.67;;;2.90;99.90;;;;;;5048762;28;20725;-74
2021/12/04 10:14:14;;;;;;;9.37;7.50;;;2.90;99.90;;;;;;5050777;28;20790;-73
2021/12/04 10:17:03;;;;;;;7.90;7.13;;;2.90;99.90;;;;;;5051517;28;20214;-73
2021/12/04 10:19:37;;;;;;;11.43;7.40;;;2.90;99.90;;;;;;5051124;28;20201;-74
2021/12/04 10:22:17;;;;;;;8.17;7.30;;;2.90;99.90;;;;;;5050907;28;20643;-74
2021/12/04 10:33:12;;;;;;;8.67;7.67;;;2.90;99.90;;;;;;5050950;28;20242;-74
2021/12/04 10:35:40;;;;;;;10.13;8.07;;;2.90;99.90;;;;;;5051240;28;20200;-74
2021/12/04 10:38:09;;;;;;;7.93;7.03;;;2.90;99.90;;;;;;5051054;28;20218;-74
2021/12/04 10:40:40;;;;;;;9.47;7.40;;;2.90;99.90;;;;;;5050797;28;20204;-74
2021/12/04 10:43:12;;;;;;;8.33;7.53;;;2.90;99.90;;;;;;5051064;28;20581;-74
2021/12/04 10:45:41;;;;;;;12.77;9.90;;;2.90;99.90;;;;;;5050855;28;20718;-74
2021/12/04 10:48:14;;;;;;;11.23;9.03;;;2.90;99.90;;;;;;5050582;28;20600;-74
2021/12/04 10:50:46;;;;;;;9.53;8.53;;;2.90;99.90;;;;;;5050952;28;20245;-73
2021/12/04 10:53:20;;;;;;;8.77;7.80;;;2.90;99.90;;;;;;5050432;28;20193;-73
2021/12/04 10:55:50;;;;;;;7.73;6.93;;;2.90;99.90;;;;;;5050908;28;20198;-73
2021/12/04 11:03:58;;;;;;;7.80;7.00;;;2.90;99.90;;;;;;5041044;28;20208;-74
2021/12/04 11:06:43;;;;;;;7.67;6.97;;;2.90;99.90;;;;;;5050368;28;20256;-74
2021/12/04 11:23:38;;;;;;;7.40;6.63;;;2.90;99.90;;;;;;5050286;28;20199;-74
2021/12/04 11:37:34;;;;;;;7.53;6.83;;;3.00;99.90;;;;;;5049747;28;20242;-74
2021/12/04 11:40:21;;;;;;;8.30;7.60;;;3.00;99.90;;;;;;5049996;28;20224;-74
2021/12/04 11:42:53;;;;;;;7.03;6.43;;;3.00;99.90;;;;;;5049971;28;20192;-74
2021/12/04 11:45:25;;;;;;;8.03;7.30;;;3.00;99.90;;;;;;5049798;28;20249;-74
2021/12/04 11:47:54;;;;;;;7.90;7.20;;;3.10;99.90;;;;;;5049547;28;20224;-74
2021/12/04 11:50:23;;;;;;;7.90;7.20;;;3.00;99.90;;;;;;5049695;28;20261;-74
2021/12/04 11:52:54;;;;;;;7.80;7.10;;;3.00;99.90;;;;;;5049878;28;20219;-74
2021/12/04 11:55:23;;;;;;;8.80;8.00;;;3.00;99.90;;;;;;5029442;28;20687;-74
2021/12/04 11:57:51;;;;;;;7.73;7.03;;;3.00;99.90;;;;;;5029497;28;20204;-74
2021/12/04 12:00:23;;;;;;;8.40;7.60;;;3.00;99.90;;;;;;5029544;28;20205;-74
2021/12/04 12:02:51;;;;;;;7.70;6.97;;;3.00;99.90;;;;;;5029515;28;20201;-73
2021/12/04 12:05:20;;;;;;;8.57;7.77;;;3.00;99.90;;;;;;5028993;28;20647;-74
2021/12/04 12:07:55;;;;;;;8.10;7.00;;;3.00;99.90;;;;;;5029190;28;20208;-74
2021/12/04 12:10:23;;;;;;;8.60;7.80;;;3.10;99.90;;;;;;5029003;28;20203;-74
2021/12/04 12:12:52;;;;;;;8.40;7.63;;;3.00;99.90;;;;;;5029512;28;20204;-74
2021/12/04 12:15:26;;;;;;;8.00;7.33;;;3.00;99.90;;;;;;5028949;28;20267;-73
2021/12/04 12:17:57;;;;;;;8.63;7.83;;;3.00;99.90;;;;;;5029262;28;20200;-73
2021/12/04 12:20:38;;;;;;;8.20;7.40;;;3.00;99.90;;;;;;5029086;28;20193;-74
2021/12/04 12:23:09;;;;;;;8.17;7.43;;;3.00;99.90;;;;;;5028835;28;20664;-73
2021/12/04 12:25:56;;;;;;;8.17;7.47;;;3.00;99.90;;;;;;5028946;28;20205;-74
2021/12/04 12:37:14;;;;;;;8.90;8.10;;;3.00;99.90;;;;;;5028596;28;20709;-73
2021/12/04 12:39:57;;;;;;;8.77;7.97;;;3.00;99.90;;;;;;5028836;28;20200;-74
2021/12/04 12:42:26;;;;;;;8.87;7.87;;;3.00;99.90;;;;;;5028457;28;20640;-74
2021/12/04 12:44:54;;;;;;;8.80;7.97;;;3.00;99.90;;;;;;5029112;28;20209;-74
2021/12/04 12:47:21;;;;;;;9.30;8.40;;;3.00;99.90;;;;;;5029130;28;20279;-73
2021/12/04 12:49:48;;;;;;;8.93;8.13;;;3.00;99.90;;;;;;5034189;28;20201;-74
2021/12/04 12:52:20;;;;;;;9.37;8.47;;;2.90;99.90;;;;;;5046119;28;20204;-74
2021/12/04 12:54:54;;;;;;;9.03;8.10;;;3.00;99.90;;;;;;5038818;28;20224;-73
2021/12/04 12:57:25;;;;;;;10.00;8.37;;;3.00;99.90;;;;;;5031139;28;20196;-73
2021/12/04 13:11:42;;;;;;;8.40;7.60;;;3.00;99.90;;;;;;5024583;28;20240;-74
2021/12/04 13:14:14;;;;;;;7.93;7.23;;;3.00;99.90;;;;;;5024817;28;20595;-73
2021/12/04 13:16:43;;;;;;;8.10;7.30;;;3.00;99.90;;;;;;5030937;28;20189;-73
2021/12/04 13:19:13;;;;;;;7.27;6.67;;;3.00;99.90;;;;;;5024863;28;20563;-73
2021/12/04 13:21:44;;;;;;;7.87;7.07;;;3.00;99.90;;;;;;5028353;28;20215;-73
2021/12/04 13:24:13;;;;;;;7.80;7.20;;;3.00;99.90;;;;;;5035150;28;20196;-74
2021/12/04 13:26:47;;;;;;;7.67;6.97;;;3.00;99.90;;;;;;5024066;28;20229;-73
2021/12/04 13:29:17;;;;;;;8.10;7.30;;;3.00;99.90;;;;;;5023809;28;20245;-74
2021/12/04 13:31:45;;;;;;;7.10;6.50;;;3.10;99.90;;;;;;5024564;28;20215;-73
2021/12/04 13:34:14;;;;;;;7.07;6.47;;;3.10;99.90;;;;;;5024031;28;20225;-73
2021/12/04 13:36:45;;;;;;;7.27;6.67;;;3.10;99.90;;;;;;5024503;28;20201;-73
2021/12/04 13:39:13;;;;;;;7.13;6.43;;;3.10;99.90;;;;;;5024115;28;20186;-73
2021/12/04 13:41:43;;;;;;;7.40;6.80;;;3.10;99.90;;;;;;5024201;28;20211;-73
2021/12/04 13:44:12;;;;;;;7.57;6.97;;;3.10;99.90;;;;;;5024367;28;20265;-73
2021/12/04 13:46:41;;;;;;;7.70;7.00;;;3.10;99.90;;;;;;5023533;28;20201;-74
2021/12/04 13:49:08;;;;;;;8.00;7.30;;;3.10;99.90;;;;;;5023371;28;20656;-74
2021/12/04 13:51:35;;;;;;;7.93;7.23;;;3.10;99.90;;;;;;5025705;28;20730;-74
2021/12/04 13:54:02;;;;;;;7.90;7.20;;;3.10;99.90;;;;;;5027949;28;20549;-74
2021/12/04 13:56:33;;;;;;;8.03;7.43;;;3.10;99.90;;;;;;5027639;28;20221;-73
2021/12/04 13:59:05;;;;;;;8.57;7.63;;;3.10;99.90;;;;;;5026433;28;20751;-73
2021/12/04 14:01:41;;;;;;;7.67;6.87;;;3.20;99.90;;;;;;5027908;28;20549;-73
2021/12/04 14:04:16;;;;;;;8.17;7.40;;;3.20;99.90;;;;;;5024178;28;20278;-73
2021/12/04 14:06:51;;;;;;;8.60;7.70;;;3.20;99.90;;;;;;5023900;28;20200;-73
2021/12/04 14:09:20;;;;;;;8.70;7.90;;;3.20;99.90;;;;;;5028991;28;20192;-73
2021/12/04 14:11:47;;;;;;;9.27;8.27;;;3.20;99.90;;;;;;5043789;28;20573;-73
2021/12/04 14:14:17;;;;;;;8.57;7.77;;;3.20;99.90;;;;;;5037657;28;20691;-73
2021/12/04 14:16:47;;;;;;;9.10;8.30;;;3.20;99.90;;;;;;5023452;28;20209;-73
2021/12/04 14:19:15;;;;;;;8.30;7.60;;;3.20;99.90;;;;;;5025026;28;20240;-73
2021/12/04 14:21:42;;;;;;;7.97;7.13;;;3.20;99.90;;;;;;5025230;28;20623;-73
2021/12/04 14:24:09;;;;;;;8.30;7.60;;;3.10;99.90;;;;;;5043009;28;20210;-73
2021/12/04 14:26:36;;;;;;;9.13;8.33;;;3.20;99.90;;;;;;5043207;28;20722;-73
2021/12/04 14:29:03;;;;;;;8.30;7.60;;;3.10;99.90;;;;;;5041410;28;20719;-73
2021/12/04 14:31:32;;;;;;;8.60;7.73;;;3.20;99.90;;;;;;5041172;28;20411;-73
2021/12/04 14:34:00;;;;;;;7.73;7.03;;;3.20;99.90;;;;;;5027268;28;20742;-74
2021/12/04 14:36:27;;;;;;;7.63;6.93;;;3.20;99.90;;;;;;5027260;28;20746;-73
2021/12/04 14:38:54;;;;;;;8.10;7.40;;;3.10;99.90;;;;;;5044717;28;20755;-74
2021/12/04 14:41:30;;;;;;;8.40;7.60;;;3.10;99.90;;;;;;5041662;28;20203;-73
2021/12/04 14:43:57;;;;;;;8.37;7.47;;;3.10;99.90;;;;;;5045844;28;20612;-73
2021/12/04 14:46:31;;;;;;;7.80;7.10;;;3.10;99.90;;;;;;5040739;28;20277;-73
2021/12/04 14:49:02;;;;;;;8.20;7.47;;;3.10;99.90;;;;;;5044108;28;20508;-73
2021/12/04 14:51:28;;;;;;;8.87;7.80;;;3.10;99.90;;;;;;5032748;28;20193;-73
2021/12/04 14:53:57;;;;;;;9.33;8.43;;;3.10;99.90;;;;;;5041939;28;20594;-73
2021/12/04 14:56:31;;;;;;;9.80;8.90;;;3.10;99.90;;;;;;5038570;28;20233;-73
2021/12/04 14:58:59;;;;;;;9.77;8.83;;;3.10;99.90;;;;;;5026666;28;20655;-73
2021/12/04 15:01:29;;;;;;;10.43;9.40;;;3.10;99.90;;;;;;5026614;28;20209;-73
2021/12/04 15:04:01;;;;;;;10.17;9.17;;;3.10;99.90;;;;;;5035358;28;20224;-73
2021/12/04 15:06:29;;;;;;;10.93;9.83;;;3.10;99.90;;;;;;5030499;28;20241;-73
2021/12/04 15:09:04;;;;;;;10.60;9.60;;;3.10;99.90;;;;;;5029731;28;20217;-73
2021/12/04 15:11:34;;;;;;;10.27;9.27;;;3.10;99.90;;;;;;5044058;28;20195;-73
2021/12/04 15:14:07;;;;;;;10.50;9.53;;;3.10;99.90;;;;;;5043475;28;20204;-73
2021/12/04 15:16:38;;;;;;;11.13;10.03;;;3.10;99.90;;;;;;5030763;28;20224;-73
2021/12/04 15:19:14;;;;;;;11.63;10.47;;;3.10;99.90;;;;;;5041055;28;20193;-73
2021/12/04 15:21:46;;;;;;;11.97;10.77;;;3.10;99.90;;;;;;5042599;28;20218;-73
2021/12/04 15:24:20;;;;;;;12.50;11.20;;;3.10;99.90;;;;;;5040984;28;20203;-73
2021/12/04 15:26:49;;;;;;;13.17;11.50;;;3.10;99.90;;;;;;5033893;28;20231;-73
2021/12/04 15:29:17;;;;;;;14.07;12.13;;;3.10;99.90;;;;;;5039992;28;20238;-73